• Join FlightAware (Why Join?)
  • Login
  • US Flag 
10:48AM EDT


 

Airport Tracker/Info


-or-


 

Live Flight TrackerFlight Track Log ✈ RPA3212 ✈ 24-Jul-2014 ✈ KDCA - KALB

Flight Track Log - Related Links

Times and Time Zones

All times are in EDT time to prevent confusion due to time zone crossing. See the RPA3212 flight status page for this flight to view local times or setup timezone preferences in your user account.

Time Position Orientation Groundspeed Altitude Reporting Facility
EDT Latitude Longitude Course Direction KTS MPH feet Rate Location/Type
03:25PM 38.8792 -77.0519 31° Northeast 163 188 1,300  Level Washington Center
03:26PM 38.9175 -77.1011 315° West 199 229 3,200 2,160 Climbing Washington Center
03:27PM 38.9744 -77.1531 325° Northwest 227 261 5,700 2,460 Climbing Washington Center
03:28PM 39.1110 -76.8361 31° Northeast  Level Estimated
03:29PM 39.1973 -76.7686 31° Northeast  Level Estimated
03:29PM 39.0261 -77.0919 43° Northeast 272 313 8,400  Level Washington Center
03:30PM 39.2836 -76.7009 31° Northeast  Level Estimated
03:30PM 39.0425 -76.9817 79° East 312 359 10,700  Level Washington Center
03:31PM 39.3669 -76.6353 31° Northeast  Level Estimated
03:31PM 39.0606 -76.8608 79° East 345 397 12,500  Level Washington Center
03:32PM 39.0839 -76.7053 79° East 370 426 14,400 1,680 Climbing Washington Center
03:33PM 39.1036 -76.5664 80° East 392 451 16,100 1,560 Climbing Washington Center
03:34PM 39.1233 -76.4242 80° East 403 464 17,700 1,440 Climbing Washington Center
03:35PM 39.1461 -76.2789 79° East 413 475 19,100 1,380 Climbing Washington Center
03:36PM 39.1658 -76.1078 81° East 426 490 20,600 1,200 Climbing Washington Center
03:37PM 39.1833 -75.9542 82° East 433 498 21,700 960 Climbing Washington Center
03:38PM 39.2433 -75.8136 61° Northeast 461 531 22,600 900 Climbing Washington Center
03:39PM 39.3331 -75.7006 44° Northeast 457 526 23,600 960 Climbing Washington Center
03:40PM 39.4236 -75.5811 46° Northeast 462 532 24,600 660 Climbing Washington Center
03:41PM 39.5364 -75.4356 45° Northeast 475 547 25,000 180 Climbing Washington Center
03:42PM 39.6300 -75.3125 45° Northeast 477 549 25,000  Level Washington Center
03:43PM 39.7217 -75.1842 47° Northeast 480 552 25,000  Level Washington Center
03:44PM 39.8186 -75.0453 48° Northeast 499 574 25,000  Level Washington Center
03:45PM 39.9111 -74.9136 47° Northeast 482 555 25,000  Level Washington Center
03:46PM 40.0019 -74.7833 48° Northeast 481 554 25,000  Level Washington Center
03:47PM 40.0936 -74.6522 48° Northeast 486 559 25,000  Level Washington Center
03:48PM 40.1847 -74.5214 48° Northeast 487 560 25,000  Level Washington Center
03:49PM 40.2667 -74.4283 41° Northeast 486 559 25,000  Level Boston Center
03:50PM 40.3503 -74.3397 39° Northeast 483 556 25,000  Level New York Center
03:51PM 40.4528 -74.2281 40° Northeast 482 555 25,000  Level New York Center
03:52PM 40.5550 -74.1175 39° Northeast 479 551 25,000 -540 Level New York Center
03:53PM 40.6556 -74.0078 40° Northeast 470 541 24,000 -540 Descending New York Center
03:54PM 40.7536 -73.9011 39° Northeast 459 528 24,000  Level New York Center
03:55PM 40.8631 -73.7756 41° Northeast 460 529 24,000  Level New York Center
03:56PM 40.9572 -73.6614 42° Northeast 459 528 24,000 -60 Level New York Center
03:57PM 41.0556 -73.5425 42° Northeast 458 527 23,900 -420 Descending New York Center
03:58PM 41.1803 -73.3867 43° Northeast 451 519 23,000 -600 Descending Boston Center
03:59PM 41.2897 -73.2528 43° Northeast 448 516 22,500 -480 Descending Boston Center
04:01PM 41.3781 -73.1417 43° Northeast 442 509 22,000 -420 Descending Boston Center
04:02PM 41.4675 -73.0325 42° Northeast 439 505 21,700 -1,380 Descending Boston Center
04:03PM 41.5536 -72.9322 41° Northeast 418 481 19,200 -1,320 Descending Boston Center
04:04PM 41.6728 -72.8986 12° North 389 448 19,000 -1,020 Descending Boston Center
04:05PM 41.7814 -72.9242 350° North 393 452 17,100 -1,140 Descending Boston Center
04:06PM 41.9486 -72.9658 350° North 378 435 15,900 -1,200 Descending New York Center
04:07PM 42.0431 -73.0189 337° Northwest 375 432 14,000 -1,800 Descending New York Center
04:08PM 42.1147 -73.0986 320° Northwest 344 396 12,200 -1,500 Descending New York Center
04:09PM 42.1886 -73.1792 321° Northwest 291 335 11,000 -960 Descending Boston Center
04:10PM 42.2122 -73.2058 320° Northwest 290 334 10,900 -120 Descending Boston Center
04:11PM 42.2800 -73.2786 322° Northwest 290 334 10,900 60 Level Boston Center
04:11PM 42.3061 -73.3128 316° Northwest 290 334 11,000 -420 Climbing Boston Center
04:12PM 42.3419 -73.3481 324° Northwest 291 335 10,500 -1,200 Descending Boston Center
04:12PM 42.3692 -73.3794 320° Northwest 287 330 9,800 -1,920 Descending Boston Center
04:13PM 42.4281 -73.4453 320° Northwest 278 320 7,600 -2,220 Descending Boston Center
04:14PM 42.4853 -73.5078 321° Northwest 267 307 5,500 -2,220 Descending Boston Center
04:15PM 42.5461 -73.5744 321° Northwest 255 293 3,200 -1,260 Descending Boston Center
04:16PM 42.5958 -73.6317 320° Northwest 231 266 3,000 -300 Descending Boston Center
04:17PM 42.6183 -73.6972 295° West 196 226 2,600 -480 Descending Boston Center
04:18PM 42.6275 -73.7642 281° West 172 198 2,100 -540 Descending Boston Center
04:19PM 42.6617 -73.7992 323° Northwest 152 175 1,600 -480 Descending Boston Center
04:20PM 42.6978 -73.8025 356° North 128 147 1,100 -480 Descending Boston Center